createdAt,value
2022-08-26T00:02:34.773Z,12.10
2022-08-26T00:09:57.454Z,11.10
2022-08-26T00:12:35.932Z,11.30
2022-08-26T00:15:58.789Z,11.50
2022-08-26T00:18:38.836Z,12.00
2022-08-26T00:22:02.984Z,12.40
2022-08-26T00:24:41.417Z,11.50
2022-08-26T00:28:10.297Z,12.80
2022-08-26T00:30:51.589Z,12.60
2022-08-26T00:38:58.638Z,12.80
2022-08-26T00:41:31.563Z,12.80
2022-08-26T00:44:04.080Z,13.50
2022-08-26T00:51:10.139Z,12.70
2022-08-26T01:02:30.262Z,11.60
2022-08-26T01:05:12.232Z,11.40
2022-08-26T01:48:39.175Z,11.50
2022-08-26T01:55:34.547Z,12.60
2022-08-26T02:03:23.312Z,12.40
2022-08-26T02:05:57.743Z,12.90
2022-08-26T02:09:21.891Z,12.70
2022-08-26T02:15:56.527Z,11.10
2022-08-26T02:18:31.556Z,12.20
2022-08-26T02:29:52.175Z,10.40
2022-08-26T02:33:17.517Z,10.30
2022-08-26T02:35:51.331Z,11.30
2022-08-26T02:38:23.564Z,10.70
2022-08-26T02:45:47.217Z,9.90
2022-08-26T02:48:25.903Z,10.40
2022-08-26T02:55:50.084Z,14.10
2022-08-26T02:58:22.967Z,11.20
2022-08-26T03:01:02.136Z,10.10
2022-08-26T03:04:57.520Z,10.90
2022-08-26T03:08:36.346Z,9.90
2022-08-26T03:11:11.057Z,10.40
2022-08-26T03:13:45.092Z,10.50
2022-08-26T03:16:23.572Z,10.50
2022-08-26T03:18:55.876Z,11.50
2022-08-26T03:21:35.512Z,11.50
2022-08-26T03:24:11.113Z,12.20
2022-08-26T03:27:47.844Z,10.30
2022-08-26T03:34:23.705Z,10.80
2022-08-26T03:37:30.271Z,9.90
2022-08-26T03:40:50.467Z,11.20
2022-08-26T03:48:15.663Z,10.30
2022-08-26T03:55:24.886Z,10.10
2022-08-26T03:58:46.578Z,9.30
2022-08-26T04:01:21.656Z,9.20
2022-08-26T04:04:42.564Z,9.30
2022-08-26T04:07:21.820Z,9.60
2022-08-26T04:14:45.794Z,8.80
2022-08-26T04:18:05.353Z,10.00
2022-08-26T04:20:39.266Z,8.90
2022-08-26T04:24:03.592Z,10.00
2022-08-26T04:27:25.600Z,9.20
2022-08-26T04:30:05.385Z,10.70
2022-08-26T04:42:03.690Z,9.30
2022-08-26T04:44:42.799Z,9.20
2022-08-26T04:47:15.205Z,9.70
2022-08-26T04:53:57.509Z,9.30
2022-08-26T04:57:45.162Z,9.20
2022-08-26T05:00:34.070Z,10.10
2022-08-26T05:03:07.682Z,10.00
2022-08-26T05:06:43.726Z,9.50
2022-08-26T05:09:18.552Z,9.80
2022-08-26T05:11:52.057Z,9.20
2022-08-26T05:14:24.982Z,9.80
2022-08-26T05:16:57.468Z,10.50
2022-08-26T05:19:29.762Z,10.00
2022-08-26T05:22:02.359Z,12.70
2022-08-26T05:24:36.395Z,11.80
2022-08-26T05:27:11.637Z,13.60
2022-08-26T05:29:44.395Z,13.50
2022-08-26T05:32:17.063Z,13.80
2022-08-26T05:34:49.341Z,13.90
2022-08-26T05:37:25.071Z,15.10
2022-08-26T05:39:57.615Z,14.70
2022-08-26T05:42:30.286Z,13.20
2022-08-26T05:45:03.279Z,13.60
2022-08-26T05:47:35.644Z,13.70
2022-08-26T05:50:09.492Z,13.50
2022-08-26T05:52:41.672Z,13.70
2022-08-26T05:55:14.026Z,12.90
2022-08-26T05:57:46.593Z,13.00
2022-08-26T06:00:21.061Z,12.20
2022-08-26T06:02:53.501Z,12.20
2022-08-26T06:05:26.765Z,11.50
2022-08-26T06:08:14.237Z,10.10
2022-08-26T06:10:52.637Z,9.10
2022-08-26T06:13:26.864Z,11.20
2022-08-26T06:16:00.347Z,10.50
2022-08-26T06:18:36.521Z,8.10
2022-08-26T06:21:18.271Z,9.70
2022-08-26T06:24:10.309Z,9.60
2022-08-26T06:26:44.051Z,8.90
2022-08-26T06:31:58.208Z,8.30
2022-08-26T06:34:31.031Z,8.90
2022-08-26T06:37:06.318Z,7.90
2022-08-26T06:39:40.255Z,8.10
2022-08-26T06:42:13.726Z,8.10
2022-08-26T06:44:47.533Z,7.50
2022-08-26T06:47:20.492Z,8.10
2022-08-26T06:49:53.132Z,8.80
2022-08-26T06:52:27.809Z,8.00
2022-08-26T06:55:01.476Z,6.60
2022-08-26T06:57:37.653Z,8.20
2022-08-26T07:00:15.461Z,7.40
2022-08-26T07:02:48.066Z,7.00
2022-08-26T07:05:21.117Z,6.80
2022-08-26T07:07:53.690Z,7.40
2022-08-26T07:10:26.641Z,7.80
2022-08-26T07:12:58.867Z,6.70
2022-08-26T07:15:31.662Z,7.40
2022-08-26T07:18:09.218Z,8.20
2022-08-26T07:20:43.000Z,6.60
2022-08-26T07:23:24.179Z,6.70
2022-08-26T07:25:57.577Z,7.10
2022-08-26T07:28:33.426Z,7.00
2022-08-26T07:31:09.821Z,7.60
2022-08-26T07:33:48.603Z,7.40
2022-08-26T07:36:23.157Z,7.40
2022-08-26T07:38:56.424Z,7.20
2022-08-26T07:41:32.316Z,7.30
2022-08-26T07:44:05.335Z,6.60
2022-08-26T07:46:38.169Z,7.30
2022-08-26T07:49:11.637Z,5.90
2022-08-26T07:51:46.776Z,6.70
2022-08-26T07:54:19.892Z,6.00
2022-08-26T07:56:52.675Z,6.50
2022-08-26T07:59:27.853Z,6.50
2022-08-26T08:02:01.452Z,6.10
2022-08-26T08:04:34.646Z,6.30
2022-08-26T08:07:11.610Z,6.20
2022-08-26T08:09:50.427Z,5.70
2022-08-26T08:12:23.292Z,5.60
2022-08-26T08:14:58.627Z,5.20
2022-08-26T08:17:34.585Z,5.60
2022-08-26T08:20:09.381Z,5.00
2022-08-26T08:22:42.540Z,5.60
2022-08-26T08:25:20.045Z,4.30
2022-08-26T08:27:52.439Z,5.00
2022-08-26T08:30:25.592Z,5.50
2022-08-26T08:32:58.695Z,4.70
2022-08-26T08:35:34.688Z,4.90
2022-08-26T08:38:08.203Z,3.80
2022-08-26T08:41:50.682Z,4.40
2022-08-26T08:47:12.405Z,4.40
2022-08-26T08:49:49.692Z,4.40
2022-08-26T08:52:30.466Z,4.60
2022-08-26T08:55:04.328Z,4.70
2022-08-26T08:58:02.231Z,4.40
2022-08-26T09:00:47.774Z,4.60
2022-08-26T09:03:38.009Z,3.50
2022-08-26T09:06:17.469Z,4.10
2022-08-26T09:08:52.001Z,3.90
2022-08-26T09:11:24.377Z,4.00
2022-08-26T09:13:57.855Z,4.60
2022-08-26T09:16:44.125Z,3.70
2022-08-26T09:19:28.761Z,4.20
2022-08-26T09:22:08.722Z,4.00
2022-08-26T09:24:48.456Z,4.20
2022-08-26T09:27:40.020Z,4.10
2022-08-26T09:30:19.995Z,4.30
2022-08-26T09:33:10.837Z,4.60
2022-08-26T09:35:48.675Z,4.10
2022-08-26T09:38:42.184Z,4.00
2022-08-26T09:41:33.354Z,3.40
2022-08-26T09:44:17.856Z,3.70
2022-08-26T09:46:59.347Z,4.30
2022-08-26T09:49:36.584Z,4.60
2022-08-26T09:52:14.741Z,3.80
2022-08-26T09:54:59.566Z,3.60
2022-08-26T09:57:34.376Z,4.50
2022-08-26T10:00:29.143Z,3.70
2022-08-26T10:03:02.794Z,3.70
2022-08-26T10:05:47.822Z,3.60
2022-08-26T10:08:31.043Z,4.10
2022-08-26T10:11:29.490Z,4.60
2022-08-26T10:14:08.972Z,3.70
2022-08-26T10:16:48.510Z,4.20
2022-08-26T10:19:29.163Z,3.60
2022-08-26T10:22:20.246Z,4.10
2022-08-26T10:24:57.696Z,4.20
2022-08-26T10:27:37.846Z,4.00
2022-08-26T10:30:16.518Z,3.90
2022-08-26T10:32:54.495Z,4.10
2022-08-26T10:35:27.632Z,4.00
2022-08-26T10:38:05.681Z,3.70
2022-08-26T10:40:49.081Z,4.10
2022-08-26T10:43:26.033Z,4.00
2022-08-26T10:46:04.585Z,3.90
2022-08-26T10:48:44.855Z,4.20
2022-08-26T10:51:21.161Z,3.90
2022-08-26T10:54:04.958Z,4.10
2022-08-26T10:56:47.497Z,3.40
2022-08-26T10:59:31.838Z,4.20
2022-08-26T11:02:13.873Z,4.30
2022-08-26T11:04:52.456Z,4.00
2022-08-26T11:07:41.881Z,3.60
2022-08-26T11:10:58.891Z,3.20
2022-08-26T11:14:04.143Z,3.20
2022-08-26T11:16:43.367Z,3.70
2022-08-26T11:20:09.524Z,3.70
2022-08-26T11:25:22.839Z,4.20
2022-08-26T11:28:00.904Z,3.30
2022-08-26T11:30:57.895Z,3.70
2022-08-26T11:34:01.465Z,3.70
2022-08-26T11:36:42.839Z,4.00
2022-08-26T11:39:29.451Z,4.40
2022-08-26T11:42:15.402Z,3.80
2022-08-26T11:44:53.175Z,3.70
2022-08-26T11:47:33.042Z,4.50
2022-08-26T11:50:23.359Z,3.80
2022-08-26T11:53:06.362Z,3.80
2022-08-26T11:55:45.370Z,3.50
2022-08-26T11:58:20.713Z,3.80
2022-08-26T12:01:01.680Z,3.80
2022-08-26T12:03:42.904Z,3.90
2022-08-26T12:06:24.128Z,3.60
2022-08-26T12:09:00.314Z,3.60
2022-08-26T12:11:34.629Z,4.00
2022-08-26T12:14:09.830Z,3.40
2022-08-26T12:16:43.505Z,3.70
2022-08-26T12:19:32.709Z,4.30
2022-08-26T12:22:08.644Z,3.30
2022-08-26T12:24:48.640Z,3.80
2022-08-26T12:27:25.487Z,3.60
2022-08-26T12:30:14.194Z,3.50
2022-08-26T12:32:50.984Z,3.80
2022-08-26T12:35:32.139Z,3.30
2022-08-26T12:38:05.209Z,3.00
2022-08-26T12:40:44.621Z,3.00
2022-08-26T12:43:41.510Z,3.00
2022-08-26T12:46:17.861Z,3.20
2022-08-26T12:48:53.426Z,3.10
2022-08-26T12:51:31.251Z,2.80
2022-08-26T12:54:07.305Z,2.80
2022-08-26T12:56:40.952Z,3.10
2022-08-26T12:59:25.198Z,3.70
2022-08-26T13:01:57.695Z,3.00
2022-08-26T13:04:39.111Z,3.10
2022-08-26T13:07:26.675Z,2.90
2022-08-26T13:10:01.069Z,2.80
2022-08-26T13:16:47.522Z,3.20
2022-08-26T13:24:18.067Z,3.70
2022-08-26T13:32:46.233Z,2.80
2022-08-26T13:35:25.349Z,3.20
2022-08-26T13:38:33.438Z,2.90
2022-08-26T13:41:06.636Z,3.20
2022-08-26T13:48:22.861Z,3.10
2022-08-26T13:51:20.489Z,3.40
2022-08-26T13:53:53.461Z,3.20
2022-08-26T13:56:29.728Z,3.50
2022-08-26T13:59:03.331Z,3.10
2022-08-26T14:01:38.230Z,3.60
2022-08-26T14:04:10.650Z,3.40
2022-08-26T14:06:42.894Z,3.70
2022-08-26T14:09:15.261Z,3.90
2022-08-26T14:11:53.930Z,3.50
2022-08-26T14:14:26.968Z,3.30
2022-08-26T14:17:00.557Z,3.40
2022-08-26T14:19:33.510Z,3.40
2022-08-26T14:22:06.852Z,3.40
2022-08-26T14:24:39.217Z,3.80
2022-08-26T14:27:11.399Z,3.00
2022-08-26T14:29:43.861Z,3.80
2022-08-26T14:32:25.395Z,3.30
2022-08-26T14:34:58.961Z,3.60
2022-08-26T14:37:31.622Z,4.30
2022-08-26T14:40:06.016Z,3.30
2022-08-26T14:42:41.344Z,4.00
2022-08-26T14:45:17.944Z,3.70
2022-08-26T14:47:51.841Z,3.70
2022-08-26T14:50:26.643Z,5.50
2022-08-26T14:53:16.785Z,4.10
2022-08-26T14:55:50.565Z,4.00
2022-08-26T14:58:25.001Z,3.50
2022-08-26T15:01:21.081Z,3.50
2022-08-26T15:03:53.813Z,4.50
2022-08-26T15:06:31.880Z,3.60
2022-08-26T15:09:06.510Z,3.50
2022-08-26T15:11:39.034Z,4.80
2022-08-26T15:14:18.876Z,3.90
2022-08-26T15:16:55.918Z,3.80
2022-08-26T15:19:29.340Z,4.10
2022-08-26T15:22:01.603Z,4.10
2022-08-26T15:24:33.801Z,4.20
2022-08-26T15:27:06.428Z,4.00
2022-08-26T15:29:41.609Z,3.90
2022-08-26T15:32:16.312Z,3.80
2022-08-26T15:34:50.028Z,4.30
2022-08-26T15:37:22.219Z,4.10
2022-08-26T15:39:56.770Z,4.70
2022-08-26T15:42:29.401Z,4.80
2022-08-26T15:45:01.641Z,5.10
2022-08-26T15:47:38.114Z,5.30
2022-08-26T15:50:26.375Z,5.60
2022-08-26T15:52:59.778Z,5.80
2022-08-26T15:55:31.975Z,4.30
2022-08-26T15:58:38.083Z,4.60
2022-08-26T16:01:10.647Z,4.30
2022-08-26T16:03:45.355Z,5.40
2022-08-26T16:06:22.507Z,5.30
2022-08-26T16:08:55.653Z,5.60
2022-08-26T16:11:31.919Z,4.50
2022-08-26T16:14:04.696Z,5.10
2022-08-26T16:16:43.364Z,4.80
2022-08-26T16:19:15.887Z,5.40
2022-08-26T16:21:51.485Z,5.20
2022-08-26T16:24:29.742Z,4.90
2022-08-26T16:27:03.520Z,4.70
2022-08-26T16:29:35.801Z,5.00
2022-08-26T16:32:08.835Z,5.00
2022-08-26T16:34:46.967Z,4.70
2022-08-26T16:37:29.128Z,5.20
2022-08-26T16:40:01.770Z,5.70
2022-08-26T16:42:34.484Z,5.40
2022-08-26T16:45:07.714Z,5.30
2022-08-26T16:47:40.046Z,5.20
2022-08-26T16:50:13.221Z,5.70
2022-08-26T16:52:51.571Z,5.50
2022-08-26T16:55:28.303Z,5.10
2022-08-26T16:58:00.643Z,5.00
2022-08-26T17:05:27.040Z,5.20
2022-08-26T17:08:07.240Z,5.60
2022-08-26T17:13:35.181Z,5.60
2022-08-26T17:16:10.811Z,6.20
2022-08-26T17:19:32.778Z,5.70
2022-08-26T17:22:20.980Z,6.10
2022-08-26T17:24:53.544Z,6.20
2022-08-26T17:27:31.904Z,6.60
2022-08-26T17:30:07.162Z,6.50
2022-08-26T17:33:39.215Z,6.30
2022-08-26T17:36:53.402Z,7.10
2022-08-26T17:39:26.673Z,7.20
2022-08-26T17:43:12.424Z,7.10
2022-08-26T17:45:45.443Z,7.10
2022-08-26T17:53:08.061Z,8.00
2022-08-26T17:55:45.223Z,7.70
2022-08-26T18:03:08.781Z,8.10
2022-08-26T18:10:14.070Z,7.90
2022-08-26T18:13:36.389Z,8.50
2022-08-26T18:21:01.520Z,8.60
2022-08-26T18:24:41.634Z,8.10
2022-08-26T18:28:26.679Z,8.10
2022-08-26T18:30:59.024Z,8.60
2022-08-26T18:33:31.472Z,8.60
2022-08-26T18:36:05.874Z,8.20
2022-08-26T18:39:03.523Z,8.30
2022-08-26T18:45:20.850Z,8.40
2022-08-26T18:48:51.013Z,8.80
2022-08-26T18:53:58.609Z,8.30
2022-08-26T18:56:32.766Z,7.90
2022-08-26T18:59:07.908Z,7.80
2022-08-26T19:02:39.814Z,8.80
2022-08-26T19:05:53.744Z,7.60
2022-08-26T19:08:26.336Z,8.10
2022-08-26T19:11:00.360Z,8.40
2022-08-26T19:14:28.135Z,9.10
2022-08-26T19:17:01.609Z,7.80
2022-08-26T19:19:34.458Z,7.50
2022-08-26T19:22:07.609Z,7.90
2022-08-26T19:24:46.825Z,8.00
2022-08-26T19:27:19.316Z,8.00
2022-08-26T19:29:51.523Z,7.80
2022-08-26T19:32:24.475Z,7.50
2022-08-26T19:34:57.387Z,7.80
2022-08-26T19:37:57.193Z,8.20
2022-08-26T19:45:29.267Z,8.10
2022-08-26T19:52:58.141Z,7.70
2022-08-26T19:55:30.377Z,8.30
2022-08-26T19:58:03.976Z,7.90
2022-08-26T20:00:39.686Z,7.50
2022-08-26T20:03:15.827Z,7.70
2022-08-26T20:05:48.959Z,7.60
2022-08-26T20:08:22.444Z,8.90
2022-08-26T20:10:54.978Z,8.30
2022-08-26T20:13:27.174Z,9.00
2022-08-26T20:15:59.637Z,9.70
2022-08-26T20:18:49.606Z,9.20
2022-08-26T20:21:29.840Z,9.30
2022-08-26T20:24:04.245Z,9.50
2022-08-26T20:26:38.504Z,8.70
2022-08-26T20:29:12.827Z,8.90
2022-08-26T20:31:45.984Z,9.70
2022-08-26T20:34:19.679Z,9.60
2022-08-26T20:36:52.657Z,10.00
2022-08-26T20:39:25.467Z,10.30
2022-08-26T20:41:58.593Z,10.70
2022-08-26T20:44:31.952Z,10.90
2022-08-26T20:47:04.528Z,10.30
2022-08-26T20:49:37.304Z,11.20
2022-08-26T20:52:11.032Z,10.80
2022-08-26T20:54:43.508Z,10.50
2022-08-26T20:57:15.749Z,11.20
2022-08-26T20:59:47.874Z,10.60
2022-08-26T21:02:20.939Z,10.40
2022-08-26T21:04:53.702Z,10.80
2022-08-26T21:07:26.415Z,10.90
2022-08-26T21:09:58.783Z,11.20
2022-08-26T21:12:33.539Z,10.90
2022-08-26T21:15:06.267Z,10.60
2022-08-26T21:17:38.697Z,9.80
2022-08-26T21:20:11.746Z,9.90
2022-08-26T21:22:45.783Z,10.70
2022-08-26T21:25:18.062Z,11.00
2022-08-26T21:27:50.300Z,11.30
2022-08-26T21:30:23.746Z,10.40
2022-08-26T21:32:56.513Z,11.50
2022-08-26T21:35:29.014Z,11.50
2022-08-26T21:38:01.207Z,12.10
2022-08-26T21:40:33.355Z,11.00
2022-08-26T21:43:05.549Z,11.20
2022-08-26T21:45:42.174Z,10.80
2022-08-26T21:48:14.339Z,11.10
2022-08-26T21:50:46.855Z,10.90
2022-08-26T21:53:19.513Z,11.00
2022-08-26T21:55:51.834Z,11.90
2022-08-26T21:58:24.324Z,10.60
2022-08-26T22:00:56.710Z,11.30
2022-08-26T22:03:29.067Z,10.40
2022-08-26T22:06:03.551Z,10.60
2022-08-26T22:08:38.197Z,10.90
2022-08-26T22:11:10.907Z,10.60
2022-08-26T22:13:44.399Z,10.60
2022-08-26T22:16:17.382Z,10.40
2022-08-26T22:18:49.643Z,10.50
2022-08-26T22:21:24.810Z,9.60
2022-08-26T22:23:58.193Z,9.50
2022-08-26T22:26:33.944Z,12.00
2022-08-26T22:29:08.099Z,10.60
2022-08-26T22:31:40.552Z,9.90
2022-08-26T22:34:17.271Z,10.90
2022-08-26T22:36:51.246Z,10.70
2022-08-26T22:39:25.553Z,10.10
2022-08-26T22:41:58.003Z,10.70
2022-08-26T22:44:30.313Z,10.70
2022-08-26T22:47:05.570Z,10.30
2022-08-26T22:49:38.636Z,11.30
2022-08-26T22:52:10.806Z,11.10
2022-08-26T22:54:43.047Z,10.70
2022-08-26T22:57:15.194Z,10.60
2022-08-26T22:59:47.745Z,12.20
2022-08-26T23:02:19.948Z,11.20
2022-08-26T23:04:52.404Z,9.90
2022-08-26T23:07:24.869Z,10.00
2022-08-26T23:09:57.072Z,11.50
2022-08-26T23:12:29.334Z,11.80
2022-08-26T23:15:02.388Z,10.80
2022-08-26T23:17:36.762Z,10.80
2022-08-26T23:20:12.821Z,10.40
2022-08-26T23:22:45.510Z,10.70
2022-08-26T23:25:17.577Z,10.50
2022-08-26T23:27:50.334Z,12.00
2022-08-26T23:30:25.888Z,12.20
2022-08-26T23:32:59.303Z,11.70
2022-08-26T23:35:31.589Z,12.10
2022-08-26T23:38:05.831Z,11.80
2022-08-26T23:40:39.429Z,12.20
2022-08-26T23:43:12.630Z,11.30
2022-08-26T23:45:44.843Z,12.00
2022-08-26T23:48:19.855Z,12.60
2022-08-26T23:51:09.544Z,12.90
2022-08-26T23:53:42.493Z,12.90
2022-08-26T23:56:18.485Z,13.00
2022-08-26T23:58:50.889Z,13.10
